createdAt,value
2019-02-24T00:00:16.646Z,18.5
2019-02-24T00:11:03.260Z,19.6
2019-02-24T00:21:50.194Z,20.6
2019-02-24T00:32:37.320Z,18.8
2019-02-24T00:43:25.896Z,17
2019-02-24T00:54:13.493Z,18
2019-02-24T01:05:00.918Z,17.8
2019-02-24T01:15:48.245Z,16.1
2019-02-24T01:26:35.786Z,16.8
2019-02-24T01:37:24.162Z,14.5
2019-02-24T01:48:10.869Z,14.4
2019-02-24T01:58:58.452Z,15
2019-02-24T02:09:45.278Z,14.9
2019-02-24T02:20:33.034Z,14.1
2019-02-24T02:31:20.814Z,15
2019-02-24T02:42:08.065Z,13.9
2019-02-24T02:52:54.805Z,14.8
2019-02-24T03:03:43.584Z,15.2
2019-02-24T03:14:30.793Z,14.8
2019-02-24T03:25:17.574Z,13.7
2019-02-24T03:36:05.349Z,14.5
2019-02-24T03:46:52.332Z,15.7
2019-02-24T03:57:39.368Z,15.7
2019-02-24T04:08:28.041Z,15.9
2019-02-24T04:19:15.351Z,12.6
2019-02-24T04:30:02.987Z,15.4
2019-02-24T04:40:50.872Z,15.6
2019-02-24T04:51:37.802Z,18.3
2019-02-24T05:02:24.604Z,19.9
2019-02-24T05:13:11.317Z,19.4
2019-02-24T05:23:58.454Z,19.9
2019-02-24T05:34:45.454Z,20.5
2019-02-24T05:45:33.131Z,19.8
2019-02-24T05:56:21.619Z,22.4
2019-02-24T06:07:09.072Z,17.2
2019-02-24T06:17:55.902Z,17.9
2019-02-24T06:28:43.744Z,18.4
2019-02-24T06:39:30.413Z,18
2019-02-24T06:50:17.091Z,17.3
2019-02-24T07:01:03.969Z,16.1
2019-02-24T07:11:52.267Z,15.8
2019-02-24T07:22:39.719Z,16.8
2019-02-24T07:33:26.605Z,17.5
2019-02-24T07:44:13.460Z,14.4
2019-02-24T07:55:00.330Z,11.9
2019-02-24T08:05:47.819Z,15.4
2019-02-24T08:16:37.008Z,16.8
2019-02-24T08:27:23.838Z,13.4
2019-02-24T08:38:11.058Z,12.1
2019-02-24T08:48:58.008Z,14.3
2019-02-24T08:59:45.108Z,14.1
2019-02-24T09:10:33.128Z,12.1
2019-02-24T09:21:20.363Z,10.7
2019-02-24T09:32:07.976Z,11.6
2019-02-24T09:42:55.826Z,11.6
2019-02-24T09:53:43.026Z,11.9
2019-02-24T10:04:29.808Z,11.4
2019-02-24T10:15:16.623Z,8.6
2019-02-24T10:26:04.405Z,10.7
2019-02-24T10:36:52.467Z,9.6
2019-02-24T10:47:40.376Z,13.1
2019-02-24T10:58:34.459Z,13.4
2019-02-24T11:09:21.735Z,10.7
2019-02-24T11:20:09.044Z,8.9
2019-02-24T11:30:55.895Z,6.7
2019-02-24T11:41:44.555Z,5.7
2019-02-24T11:52:31.469Z,6.8
2019-02-24T12:03:18.329Z,5.9
2019-02-24T12:14:07.164Z,5.1
2019-02-24T12:24:53.901Z,5.5
2019-02-24T12:35:41.493Z,6.4
2019-02-24T12:46:28.352Z,5.8
2019-02-24T12:57:15.411Z,7.3
2019-02-24T13:08:02.100Z,8.5
2019-02-24T13:18:49.501Z,9.8
2019-02-24T13:29:36.499Z,7.6
2019-02-24T13:40:24.144Z,7.6
2019-02-24T13:51:11.402Z,7.8
2019-02-24T14:01:59.020Z,8
2019-02-24T14:12:47.436Z,8.2
2019-02-24T14:23:34.231Z,9.1
2019-02-24T14:34:21.471Z,6.2
2019-02-24T14:45:10.381Z,6.9
2019-02-24T14:55:57.109Z,9.4
2019-02-24T15:06:45.440Z,6.7
2019-02-24T15:17:32.451Z,7.8
2019-02-24T15:28:20.063Z,8
2019-02-24T15:39:07.327Z,10
2019-02-24T15:49:55.447Z,8.5
2019-02-24T16:00:43.515Z,8.1
2019-02-24T16:11:30.591Z,9.2
2019-02-24T16:22:17.908Z,9.3
2019-02-24T16:33:10.492Z,6.9
2019-02-24T16:43:58.753Z,7.3
2019-02-24T16:54:52.747Z,8.8
2019-02-24T17:05:40.468Z,10.3
2019-02-24T17:16:29.167Z,23.5
2019-02-24T17:27:16.164Z,14.5
2019-02-24T17:38:03.199Z,13.3
2019-02-24T17:48:50.311Z,12.7
2019-02-24T17:59:40.477Z,17.9
2019-02-24T18:10:27.715Z,20.4
2019-02-24T18:21:14.520Z,22.2
2019-02-24T18:32:01.426Z,22.2
2019-02-24T18:42:48.128Z,21.3
2019-02-24T18:53:35.141Z,21.8
2019-02-24T19:04:22.071Z,19.9
2019-02-24T19:15:09.843Z,17.4
2019-02-24T19:25:59.049Z,16.6
2019-02-24T19:36:48.544Z,16.9
2019-02-24T19:47:35.593Z,18.8
2019-02-24T19:58:23.056Z,21.3
2019-02-24T20:09:10.655Z,21.9
2019-02-24T20:19:58.554Z,23.3
2019-02-24T20:30:45.714Z,23.4
2019-02-24T20:41:32.530Z,29.3
2019-02-24T20:52:20.453Z,25.2
2019-02-24T21:03:07.771Z,20.6
2019-02-24T21:13:55.459Z,17.8
2019-02-24T21:24:43.188Z,18.9
2019-02-24T21:35:30.015Z,15.2
2019-02-24T21:46:17.760Z,18.1
2019-02-24T21:57:05.612Z,24.3
2019-02-24T22:07:55.585Z,18.9
2019-02-24T22:18:42.586Z,17.5
2019-02-24T22:29:29.674Z,15.6
2019-02-24T22:40:17.336Z,17.5
2019-02-24T22:51:04.131Z,18.6
2019-02-24T23:01:50.860Z,16.3
2019-02-24T23:12:37.919Z,13.7
2019-02-24T23:23:25.326Z,15.4
2019-02-24T23:34:12.578Z,12.6
2019-02-24T23:44:59.370Z,14
2019-02-24T23:55:47.029Z,13.7
